createdAt,value
2023-02-04T00:02:38.828Z,3.70
2023-02-04T00:05:36.004Z,3.80
2023-02-04T00:08:33.066Z,3.80
2023-02-04T00:11:29.990Z,3.90
2023-02-04T00:14:26.881Z,3.90
2023-02-04T00:17:23.913Z,3.90
2023-02-04T00:20:20.866Z,3.90
2023-02-04T00:23:17.778Z,3.90
2023-02-04T00:26:14.628Z,3.80
2023-02-04T00:29:11.592Z,3.80
2023-02-04T00:32:08.638Z,3.80
2023-02-04T00:35:06.149Z,3.70
2023-02-04T00:38:03.857Z,3.80
2023-02-04T00:41:00.728Z,3.70
2023-02-04T00:43:57.554Z,3.70
2023-02-04T00:46:54.484Z,3.70
2023-02-04T00:49:51.337Z,3.60
2023-02-04T00:52:48.185Z,3.70
2023-02-04T00:55:45.023Z,3.60
2023-02-04T00:58:41.858Z,3.60
2023-02-04T01:01:38.994Z,3.50
2023-02-04T01:04:35.836Z,3.40
2023-02-04T01:07:32.832Z,3.50
2023-02-04T01:10:30.171Z,3.50
2023-02-04T01:13:27.286Z,3.50
2023-02-04T01:16:24.238Z,3.40
2023-02-04T01:19:21.276Z,3.50
2023-02-04T01:22:18.128Z,3.50
2023-02-04T01:25:15.054Z,3.40
2023-02-04T01:28:11.976Z,3.40
2023-02-04T01:31:08.863Z,3.30
2023-02-04T01:34:05.684Z,3.40
2023-02-04T01:37:02.506Z,3.40
2023-02-04T01:39:59.353Z,3.50
2023-02-04T01:42:56.207Z,3.40
2023-02-04T01:45:53.548Z,3.30
2023-02-04T01:48:50.455Z,3.30
2023-02-04T01:51:47.608Z,3.30
2023-02-04T01:54:44.479Z,3.20
2023-02-04T01:57:41.992Z,3.30
2023-02-04T02:00:39.840Z,3.30
2023-02-04T02:03:36.655Z,3.30
2023-02-04T02:06:34.137Z,3.30
2023-02-04T02:09:32.853Z,3.30
2023-02-04T02:12:29.701Z,3.30
2023-02-04T02:15:26.672Z,3.20
2023-02-04T02:18:25.250Z,3.40
2023-02-04T02:21:58.216Z,3.40
2023-02-04T02:24:55.169Z,3.60
2023-02-04T02:27:52.257Z,3.50
2023-02-04T02:30:49.808Z,3.50
2023-02-04T02:33:47.759Z,3.50
2023-02-04T02:36:45.487Z,3.40
2023-02-04T02:39:45.795Z,3.40
2023-02-04T02:42:45.499Z,3.40
2023-02-04T02:45:42.745Z,3.40
2023-02-04T02:48:39.594Z,3.40
2023-02-04T02:51:36.462Z,3.40
2023-02-04T02:54:34.095Z,3.30
2023-02-04T02:57:30.940Z,3.30
2023-02-04T03:00:30.296Z,3.20
2023-02-04T03:03:35.286Z,3.20
2023-02-04T03:06:32.244Z,3.10
2023-02-04T03:09:30.049Z,3.00
2023-02-04T03:12:26.982Z,3.00
2023-02-04T03:15:23.868Z,3.00
2023-02-04T03:18:21.895Z,3.00
2023-02-04T03:21:18.892Z,2.90
2023-02-04T03:24:16.665Z,2.80
2023-02-04T03:27:15.424Z,2.70
2023-02-04T03:30:12.756Z,3.00
2023-02-04T03:33:09.594Z,3.10
2023-02-04T03:36:07.166Z,3.20
2023-02-04T03:39:04.522Z,3.20
2023-02-04T03:42:01.353Z,3.20
2023-02-04T03:44:58.332Z,3.20
2023-02-04T03:47:55.164Z,3.20
2023-02-04T03:50:51.991Z,3.30
2023-02-04T03:53:48.830Z,3.20
2023-02-04T03:56:45.725Z,3.20
2023-02-04T03:59:42.786Z,3.10
2023-02-04T04:02:40.873Z,2.80
2023-02-04T04:05:37.802Z,2.60
2023-02-04T04:08:34.776Z,2.30
2023-02-04T04:11:32.499Z,2.30
2023-02-04T04:14:29.321Z,2.10
2023-02-04T04:17:26.166Z,2.10
2023-02-04T04:20:25.538Z,2.00
2023-02-04T04:23:22.467Z,1.80
2023-02-04T04:26:19.278Z,1.80
2023-02-04T04:29:16.101Z,1.70
2023-02-04T04:32:13.028Z,1.70
2023-02-04T04:35:09.855Z,1.70
2023-02-04T04:38:06.702Z,1.70
2023-02-04T04:41:03.616Z,1.70
2023-02-04T04:44:00.511Z,1.70
2023-02-04T04:46:57.491Z,1.70
2023-02-04T04:49:54.338Z,1.70
2023-02-04T04:52:51.239Z,1.70
2023-02-04T04:55:48.040Z,1.80
2023-02-04T04:58:45.127Z,1.80
2023-02-04T05:01:42.025Z,1.70
2023-02-04T05:04:38.903Z,1.70
2023-02-04T05:07:35.770Z,1.60
2023-02-04T05:10:32.878Z,1.70
2023-02-04T05:13:30.319Z,1.80
2023-02-04T05:16:27.261Z,1.80
2023-02-04T05:19:24.160Z,1.80
2023-02-04T05:22:20.987Z,1.80
2023-02-04T05:25:18.020Z,1.80
2023-02-04T05:28:14.954Z,1.80
2023-02-04T05:31:11.997Z,1.70
2023-02-04T05:34:08.883Z,1.70
2023-02-04T05:37:05.695Z,1.70
2023-02-04T05:40:03.793Z,1.80
2023-02-04T05:43:00.966Z,1.80
2023-02-04T05:45:58.017Z,1.80
2023-02-04T05:48:54.993Z,1.80
2023-02-04T05:51:51.867Z,1.70
2023-02-04T05:54:48.761Z,1.70
2023-02-04T05:57:45.583Z,1.70
2023-02-04T06:00:42.395Z,1.60
2023-02-04T06:03:39.326Z,1.70
2023-02-04T06:06:36.248Z,1.70
2023-02-04T06:09:33.119Z,1.70
2023-02-04T06:12:29.993Z,1.70
2023-02-04T06:15:26.882Z,1.70
2023-02-04T06:18:23.801Z,1.70
2023-02-04T06:21:21.060Z,1.70
2023-02-04T06:24:17.923Z,1.70
2023-02-04T06:27:14.876Z,1.70
2023-02-04T06:30:12.888Z,1.60
2023-02-04T06:33:09.722Z,1.60
2023-02-04T06:36:07.035Z,1.60
2023-02-04T06:39:03.980Z,1.50
2023-02-04T06:42:00.846Z,1.50
2023-02-04T06:44:57.723Z,1.60
2023-02-04T06:47:54.541Z,1.60
2023-02-04T06:50:51.479Z,1.60
2023-02-04T06:53:48.327Z,1.60
2023-02-04T06:56:45.200Z,1.60
2023-02-04T06:59:43.644Z,1.70
2023-02-04T07:02:40.564Z,1.60
2023-02-04T07:05:37.432Z,1.60
2023-02-04T07:08:34.417Z,1.60
2023-02-04T07:11:31.281Z,1.50
2023-02-04T07:14:28.100Z,1.50
2023-02-04T07:17:24.926Z,1.60
2023-02-04T07:20:21.828Z,1.50
2023-02-04T07:23:18.660Z,1.60
2023-02-04T07:26:15.508Z,1.50
2023-02-04T07:29:20.698Z,1.50
2023-02-04T07:32:20.938Z,1.50
2023-02-04T07:35:18.082Z,1.50
2023-02-04T07:38:14.895Z,1.40
2023-02-04T07:41:11.726Z,1.50
2023-02-04T07:44:08.725Z,1.40
2023-02-04T07:47:05.560Z,1.40
2023-02-04T07:50:02.400Z,1.30
2023-02-04T07:52:59.232Z,1.40
2023-02-04T07:55:56.165Z,1.30
2023-02-04T07:58:53.005Z,1.40
2023-02-04T08:01:49.902Z,1.30
2023-02-04T08:04:46.772Z,1.40
2023-02-04T08:07:43.620Z,1.40
2023-02-04T08:10:40.459Z,1.30
2023-02-04T08:13:37.309Z,1.40
2023-02-04T08:16:34.189Z,1.50
2023-02-04T08:19:31.209Z,1.50
2023-02-04T08:22:28.164Z,1.40
2023-02-04T08:25:25.233Z,1.40
2023-02-04T08:28:22.281Z,1.50
2023-02-04T08:31:19.224Z,1.40
2023-02-04T08:34:16.126Z,1.40
2023-02-04T08:37:12.942Z,1.40
2023-02-04T08:40:10.940Z,1.40
2023-02-04T08:43:07.741Z,1.50
2023-02-04T08:46:09.595Z,1.50
2023-02-04T08:49:06.576Z,1.50
2023-02-04T08:52:06.066Z,1.50
2023-02-04T08:55:03.491Z,1.50
2023-02-04T08:58:01.340Z,1.70
2023-02-04T09:00:58.843Z,1.60
2023-02-04T09:03:55.804Z,1.70
2023-02-04T09:06:52.818Z,1.60
2023-02-04T09:09:49.671Z,1.50
2023-02-04T09:12:46.587Z,1.50
2023-02-04T09:15:43.428Z,1.60
2023-02-04T09:18:40.689Z,1.60
2023-02-04T09:21:37.542Z,1.70
2023-02-04T09:24:34.484Z,1.70
2023-02-04T09:27:32.406Z,1.70
2023-02-04T09:30:29.934Z,1.80
2023-02-04T09:33:26.991Z,1.90
2023-02-04T09:36:28.433Z,2.00
2023-02-04T09:39:25.408Z,2.10
2023-02-04T09:42:26.135Z,2.10
2023-02-04T09:45:26.678Z,2.20
2023-02-04T09:48:24.585Z,2.20
2023-02-04T09:51:26.191Z,2.20
2023-02-04T09:54:24.058Z,2.30
2023-02-04T09:57:21.277Z,2.10
2023-02-04T10:00:26.522Z,2.10
2023-02-04T10:03:23.420Z,2.10
2023-02-04T10:06:23.573Z,2.20
2023-02-04T10:09:20.472Z,2.10
2023-02-04T10:12:17.609Z,2.20
2023-02-04T10:15:16.789Z,2.10
2023-02-04T10:18:26.562Z,2.10
2023-02-04T10:21:30.217Z,2.20
2023-02-04T10:24:30.310Z,2.00
2023-02-04T10:27:27.257Z,2.10
2023-02-04T10:30:43.835Z,2.20
2023-02-04T10:33:40.733Z,2.20
2023-02-04T10:36:38.670Z,2.30
2023-02-04T10:39:43.337Z,2.50
2023-02-04T10:42:49.593Z,2.50
2023-02-04T10:45:55.284Z,2.50
2023-02-04T10:48:52.320Z,2.70
2023-02-04T10:51:51.534Z,2.60
2023-02-04T10:54:48.607Z,2.70
2023-02-04T10:57:49.881Z,2.80
2023-02-04T11:00:47.131Z,2.80
2023-02-04T11:03:47.096Z,3.30
2023-02-04T11:06:47.775Z,3.30
2023-02-04T11:09:44.722Z,3.30
2023-02-04T11:12:45.799Z,3.20
2023-02-04T11:16:25.616Z,3.10
2023-02-04T11:19:39.498Z,3.10
2023-02-04T11:22:41.168Z,2.90
2023-02-04T11:25:40.098Z,3.00
2023-02-04T11:29:00.423Z,2.90
2023-02-04T11:32:02.724Z,2.80
2023-02-04T11:35:28.746Z,2.80
2023-02-04T11:38:27.725Z,2.90
2023-02-04T11:41:30.773Z,3.00
2023-02-04T11:44:27.986Z,3.00
2023-02-04T11:47:27.182Z,3.00
2023-02-04T11:50:38.460Z,3.30
2023-02-04T11:53:35.404Z,3.50
2023-02-04T11:56:32.241Z,3.50
2023-02-04T11:59:29.098Z,3.40
2023-02-04T12:02:26.389Z,3.20
2023-02-04T12:05:47.558Z,3.10
2023-02-04T12:08:44.413Z,3.10
2023-02-04T12:11:55.744Z,3.20
2023-02-04T12:15:24.098Z,3.30
2023-02-04T12:18:21.087Z,3.30
2023-02-04T12:21:19.384Z,3.40
2023-02-04T12:24:16.282Z,3.50
2023-02-04T12:27:13.113Z,3.40
2023-02-04T12:30:11.332Z,3.40
2023-02-04T12:33:08.242Z,3.40
2023-02-04T12:36:05.515Z,3.30
2023-02-04T12:39:03.129Z,3.40
2023-02-04T12:42:00.036Z,3.30
2023-02-04T12:44:56.928Z,3.30
2023-02-04T12:47:53.774Z,3.50
2023-02-04T12:50:50.592Z,3.50
2023-02-04T12:53:48.610Z,3.50
2023-02-04T12:56:45.450Z,3.80
2023-02-04T12:59:42.268Z,3.90
2023-02-04T13:02:39.113Z,4.00
2023-02-04T13:05:36.011Z,3.80
2023-02-04T13:08:32.869Z,3.80
2023-02-04T13:11:29.716Z,3.80
2023-02-04T13:14:26.662Z,3.60
2023-02-04T13:17:23.502Z,3.40
2023-02-04T13:20:20.525Z,3.30
2023-02-04T13:23:17.365Z,3.50
2023-02-04T13:26:14.268Z,3.90
2023-02-04T13:29:11.841Z,3.90
2023-02-04T13:32:09.527Z,3.90
2023-02-04T13:35:06.841Z,3.90
2023-02-04T13:38:03.694Z,3.70
2023-02-04T13:41:00.543Z,3.70
2023-02-04T13:43:58.526Z,3.70
2023-02-04T13:46:55.383Z,3.60
2023-02-04T13:49:52.202Z,3.60
2023-02-04T13:52:49.048Z,3.80
2023-02-04T13:55:45.902Z,4.00
2023-02-04T13:58:43.970Z,3.90
2023-02-04T14:01:40.867Z,3.90
2023-02-04T14:04:37.689Z,4.20
2023-02-04T14:07:34.633Z,4.20
2023-02-04T14:10:31.934Z,4.10
2023-02-04T14:13:28.969Z,4.10
2023-02-04T14:16:25.844Z,4.00
2023-02-04T14:19:27.526Z,4.10
2023-02-04T14:22:24.401Z,4.20
2023-02-04T14:25:21.457Z,4.20
2023-02-04T14:28:18.335Z,4.10
2023-02-04T14:31:15.297Z,4.10
2023-02-04T14:34:12.268Z,4.20
2023-02-04T14:37:09.105Z,4.10
2023-02-04T14:40:06.825Z,3.80
2023-02-04T14:43:03.680Z,4.00
2023-02-04T14:46:00.527Z,3.70
2023-02-04T14:48:57.420Z,3.50
2023-02-04T14:51:54.879Z,3.30
2023-02-04T14:54:51.732Z,3.40
2023-02-04T14:57:48.574Z,3.20
2023-02-04T15:00:45.391Z,3.10
2023-02-04T15:03:42.266Z,3.00
2023-02-04T15:06:39.225Z,2.90
2023-02-04T15:09:36.084Z,2.80
2023-02-04T15:12:32.935Z,3.20
2023-02-04T15:15:29.772Z,3.30
2023-02-04T15:18:26.825Z,3.00
2023-02-04T15:21:23.689Z,3.00
2023-02-04T15:24:22.829Z,2.80
2023-02-04T15:27:19.755Z,2.70
2023-02-04T15:30:17.656Z,2.70
2023-02-04T15:33:16.668Z,2.90
2023-02-04T15:36:13.532Z,2.90
2023-02-04T15:39:10.435Z,3.00
2023-02-04T15:42:07.258Z,3.00
2023-02-04T15:45:05.375Z,2.70
2023-02-04T15:48:04.603Z,2.70
2023-02-04T15:51:02.053Z,2.70
2023-02-04T15:53:58.948Z,2.70
2023-02-04T15:56:55.823Z,2.60
2023-02-04T15:59:52.736Z,2.50
2023-02-04T16:02:49.891Z,2.70
2023-02-04T16:05:46.762Z,2.70
2023-02-04T16:08:43.624Z,2.60
2023-02-04T16:11:40.974Z,2.50
2023-02-04T16:14:37.984Z,2.30
2023-02-04T16:17:35.059Z,2.40
2023-02-04T16:20:34.988Z,2.20
2023-02-04T16:23:31.835Z,2.20
2023-02-04T16:26:29.619Z,2.50
2023-02-04T16:29:26.906Z,2.30
2023-02-04T16:32:23.860Z,2.10
2023-02-04T16:35:20.682Z,2.00
2023-02-04T16:38:19.307Z,1.90
2023-02-04T16:41:16.185Z,2.10
2023-02-04T16:44:13.131Z,2.10
2023-02-04T16:47:10.711Z,2.10
2023-02-04T16:50:08.211Z,1.90
2023-02-04T16:53:05.149Z,2.00
2023-02-04T16:56:02.547Z,1.90
2023-02-04T16:58:59.383Z,2.00
2023-02-04T17:01:57.703Z,2.10
2023-02-04T17:04:54.612Z,2.10
2023-02-04T17:07:51.510Z,2.10
2023-02-04T17:11:07.760Z,1.90
2023-02-04T17:14:11.937Z,1.70
2023-02-04T17:17:09.015Z,1.60
2023-02-04T17:20:06.085Z,1.80
2023-02-04T17:23:03.189Z,1.60
2023-02-04T17:26:00.035Z,1.60
2023-02-04T17:28:56.875Z,1.30
2023-02-04T17:31:53.892Z,1.10
2023-02-04T17:34:54.191Z,1.00
2023-02-04T17:37:51.103Z,0.90
2023-02-04T17:40:50.087Z,0.80
2023-02-04T17:43:47.166Z,0.70
2023-02-04T17:46:44.147Z,0.60
2023-02-04T17:49:41.024Z,0.50
2023-02-04T17:52:38.613Z,0.40
2023-02-04T17:55:36.131Z,0.30
2023-02-04T17:58:36.207Z,0.30
2023-02-04T18:01:33.933Z,0.20
2023-02-04T18:04:31.689Z,0.20
2023-02-04T18:07:28.561Z,0.10
2023-02-04T18:10:39.533Z,0.00
2023-02-04T18:13:36.400Z,-0.10
2023-02-04T18:16:35.305Z,0.00
2023-02-04T18:19:39.557Z,0.30
2023-02-04T18:22:36.412Z,0.20
2023-02-04T18:25:33.771Z,0.00
2023-02-04T18:28:35.715Z,0.00
2023-02-04T18:31:51.118Z,0.10
2023-02-04T18:34:54.321Z,0.10
2023-02-04T18:37:52.588Z,-0.20
2023-02-04T18:40:54.986Z,-0.40
2023-02-04T18:44:02.359Z,-0.30
2023-02-04T18:47:09.477Z,-0.40
2023-02-04T18:50:31.796Z,-0.30
2023-02-04T18:53:29.248Z,-0.50
2023-02-04T18:56:26.653Z,-0.60
2023-02-04T18:59:28.041Z,-0.60
2023-02-04T19:02:36.288Z,-0.70
2023-02-04T19:05:42.463Z,-0.70
2023-02-04T19:08:44.813Z,-0.60
2023-02-04T19:11:48.224Z,-0.70
2023-02-04T19:14:45.688Z,-0.80
2023-02-04T19:17:42.700Z,-0.80
2023-02-04T19:20:39.603Z,-0.80
2023-02-04T19:23:37.823Z,-0.90
2023-02-04T19:27:00.188Z,-0.90
2023-02-04T19:29:59.780Z,-0.90
2023-02-04T19:32:58.637Z,-0.90
2023-02-04T19:35:55.475Z,-0.90
2023-02-04T19:39:01.160Z,-0.90
2023-02-04T19:41:58.595Z,-0.90
2023-02-04T19:45:00.346Z,-1.00
2023-02-04T19:47:57.882Z,-1.00
2023-02-04T19:50:55.304Z,-1.10
2023-02-04T19:54:02.683Z,-1.00
2023-02-04T19:56:59.639Z,-1.20
2023-02-04T19:59:57.329Z,-1.30
2023-02-04T20:02:54.909Z,-1.20
2023-02-04T20:05:52.482Z,-1.30
2023-02-04T20:08:59.665Z,-1.10
2023-02-04T20:12:05.951Z,-1.20
2023-02-04T20:15:18.373Z,-1.20
2023-02-04T20:18:19.970Z,-1.30
2023-02-04T20:21:16.925Z,-1.30
2023-02-04T20:24:18.056Z,-1.40
2023-02-04T20:27:23.892Z,-1.40
2023-02-04T20:30:28.557Z,-1.50
2023-02-04T20:33:59.597Z,-1.40
2023-02-04T20:36:56.650Z,-1.50
2023-02-04T20:39:54.056Z,-1.60
2023-02-04T20:43:10.756Z,-1.60
2023-02-04T20:46:10.358Z,-1.60
2023-02-04T20:49:24.906Z,-1.50
2023-02-04T20:52:40.376Z,-1.60
2023-02-04T20:55:37.293Z,-1.70
2023-02-04T20:58:39.943Z,-1.70
2023-02-04T21:01:50.061Z,-1.70
2023-02-04T21:04:51.970Z,-1.80
2023-02-04T21:07:48.891Z,-1.80
2023-02-04T21:10:45.730Z,-1.70
2023-02-04T21:13:42.817Z,-1.70
2023-02-04T21:16:39.674Z,-1.70
2023-02-04T21:19:36.972Z,-1.70
2023-02-04T21:22:33.820Z,-1.70
2023-02-04T21:25:31.094Z,-1.80
2023-02-04T21:28:28.631Z,-1.80
2023-02-04T21:31:25.823Z,-1.90
2023-02-04T21:34:22.678Z,-2.00
2023-02-04T21:37:19.967Z,-1.90
2023-02-04T21:40:21.618Z,-2.00
2023-02-04T21:43:18.645Z,-2.00
2023-02-04T21:46:15.997Z,-2.00
2023-02-04T21:49:12.836Z,-2.00
2023-02-04T21:52:09.800Z,-2.10
2023-02-04T21:55:07.311Z,-2.10
2023-02-04T21:58:05.682Z,-2.10
2023-02-04T22:01:02.575Z,-2.10
2023-02-04T22:03:59.406Z,-2.10
2023-02-04T22:06:56.324Z,-2.20
2023-02-04T22:09:53.198Z,-2.20
2023-02-04T22:12:50.294Z,-2.20
2023-02-04T22:15:48.107Z,-2.20
2023-02-04T22:18:45.031Z,-2.20
2023-02-04T22:21:41.865Z,-2.20
2023-02-04T22:24:38.697Z,-2.10
2023-02-04T22:27:35.574Z,-2.10
2023-02-04T22:30:32.413Z,-2.20
2023-02-04T22:33:29.270Z,-2.30
2023-02-04T22:36:26.092Z,-2.10
2023-02-04T22:39:23.149Z,-2.20
2023-02-04T22:42:20.110Z,-2.40
2023-02-04T22:45:16.977Z,-2.40
2023-02-04T22:48:13.823Z,-2.40
2023-02-04T22:51:10.715Z,-2.30
2023-02-04T22:54:07.576Z,-2.30
2023-02-04T22:57:04.692Z,-2.50
2023-02-04T23:00:01.560Z,-2.50
2023-02-04T23:02:58.421Z,-2.60
2023-02-04T23:05:55.248Z,-2.60
2023-02-04T23:08:53.558Z,-2.70
2023-02-04T23:11:50.391Z,-2.60
2023-02-04T23:14:48.664Z,-2.30
2023-02-04T23:17:45.495Z,-2.50
2023-02-04T23:20:42.616Z,-2.40
2023-02-04T23:23:39.517Z,-2.50
2023-02-04T23:26:36.484Z,-2.50
2023-02-04T23:29:35.286Z,-2.50
2023-02-04T23:32:32.298Z,-2.60
2023-02-04T23:35:29.199Z,-2.60
2023-02-04T23:38:26.121Z,-2.70
2023-02-04T23:41:23.379Z,-2.60
2023-02-04T23:44:20.334Z,-2.70
2023-02-04T23:47:18.244Z,-2.70
2023-02-04T23:50:15.622Z,-2.70
2023-02-04T23:53:12.467Z,-2.80
2023-02-04T23:56:09.283Z,-2.80
2023-02-04T23:59:06.428Z,-2.90
